Time,TemperatureF,DewpointF,PressureIn,WindDirection,WindDirectionDegrees,WindSpeedMPH,WindSpeedGustMPH,Humidity,HourlyPrecipIn,Conditions,Clouds,dailyrainin,SoftwareType,DateUTC
2013-05-24 00:01:00,59.7,59.1,29.69,WSW,242,2.0,5.0,98,0.02,,---,0.00,VWS V14.01,2013-05-24 04:01:00,
2013-05-24 00:02:00,59.7,59.1,29.69,WSW,249,1.0,5.0,98,0.02,,---,0.00,VWS V14.01,2013-05-24 04:02:00,
2013-05-24 00:03:00,59.7,59.1,29.69,SW,225,2.0,5.0,98,0.02,,---,0.00,VWS V14.01,2013-05-24 04:03:00,
2013-05-24 00:08:00,59.6,59.0,29.69,West,264,1.0,4.0,98,0.02,,---,0.00,VWS V14.01,2013-05-24 04:08:00,
2013-05-24 00:13:00,59.4,58.5,29.69,WSW,257,3.0,4.0,97,0.01,,---,0.00,VWS V14.01,2013-05-24 04:13:00,
2013-05-24 00:18:00,59.3,58.5,29.69,West,276,3.0,6.0,97,0.01,,---,0.00,VWS V14.01,2013-05-24 04:18:00,
2013-05-24 00:21:00,59.2,58.3,29.69,WNW,290,2.0,6.0,97,0.01,,---,0.00,VWS V14.01,2013-05-24 04:21:00,
2013-05-24 00:26:00,59.0,58.2,29.69,West,264,1.0,6.0,97,0.01,,---,0.00,VWS V14.01,2013-05-24 04:26:00,
2013-05-24 00:31:00,59.0,58.2,29.69,WNW,291,3.0,5.0,97,0.00,,---,0.00,VWS V14.01,2013-05-24 04:31:00,
2013-05-24 00:37:00,58.9,58.0,29.69,West,266,1.0,4.0,97,0.00,,---,0.00,VWS V14.01,2013-05-24 04:37:00,
2013-05-24 00:41:00,58.8,58.0,29.69,SW,226,2.0,4.0,97,0.01,,---,0.01,VWS V14.01,2013-05-24 04:41:00,
2013-05-24 00:46:00,58.7,57.8,29.68,WSW,257,4.0,4.0,97,0.01,,---,0.01,VWS V14.01,2013-05-24 04:46:00,
2013-05-24 00:51:00,58.6,57.8,29.68,WNW,284,2.0,5.0,97,0.01,,---,0.01,VWS V14.01,2013-05-24 04:51:00,
2013-05-24 00:57:00,58.5,57.7,29.68,WNW,283,0.0,3.0,97,0.02,,---,0.02,VWS V14.01,2013-05-24 04:57:00,
2013-05-24 01:01:00,58.4,57.6,29.68,WNW,284,0.0,1.0,97,0.02,,---,0.02,VWS V14.01,2013-05-24 05:01:00,
2013-05-24 01:06:00,58.3,57.5,29.68,NNW,330,1.0,2.0,97,0.02,,---,0.02,VWS V14.01,2013-05-24 05:06:00,
2013-05-24 01:11:00,58.1,57.3,29.68,WNW,297,2.0,3.0,97,0.02,,---,0.02,VWS V14.01,2013-05-24 05:11:00,
2013-05-24 01:16:00,58.1,57.3,29.68,WNW,293,2.0,3.0,97,0.03,,---,0.03,VWS V14.01,2013-05-24 05:16:00,
2013-05-24 01:22:00,58.1,57.3,29.68,NW,318,1.0,2.0,97,0.04,,---,0.04,VWS V14.01,2013-05-24 05:22:00,
2013-05-24 01:26:00,58.0,57.2,29.68,WNW,290,2.0,2.0,97,0.04,,---,0.04,VWS V14.01,2013-05-24 05:26:00,
2013-05-24 01:31:00,58.0,57.2,29.67,WNW,302,2.0,3.0,97,0.05,,---,0.05,VWS V14.01,2013-05-24 05:31:00,
2013-05-24 01:37:00,58.0,57.2,29.67,WNW,300,1.0,4.0,97,0.05,,---,0.05,VWS V14.01,2013-05-24 05:37:00,
2013-05-24 01:41:00,57.9,57.1,29.67,WNW,291,2.0,3.0,97,0.06,,---,0.06,VWS V14.01,2013-05-24 05:41:00,
2013-05-24 01:46:00,57.8,57.0,29.66,NW,311,1.0,3.0,97,0.06,,---,0.07,VWS V14.01,2013-05-24 05:46:00,
2013-05-24 01:51:00,57.8,57.0,29.66,WNW,294,1.0,2.0,97,0.06,,---,0.07,VWS V14.01,2013-05-24 05:51:00,
2013-05-24 01:56:00,57.7,57.1,29.66,North,359,1.0,2.0,98,0.06,,---,0.08,VWS V14.01,2013-05-24 05:56:00,
2013-05-24 02:01:00,57.7,57.1,29.65,WNW,302,2.0,3.0,98,0.07,,---,0.09,VWS V14.01,2013-05-24 06:01:00,
2013-05-24 02:06:00,57.7,57.1,29.65,WNW,291,2.0,3.0,98,0.07,,---,0.09,VWS V14.01,2013-05-24 06:06:00,
2013-05-24 02:11:00,57.7,57.1,29.65,WNW,288,0.0,2.0,98,0.08,,---,0.10,VWS V14.01,2013-05-24 06:11:00,
2013-05-24 02:16:00,57.6,57.0,29.65,WNW,288,0.0,0.0,98,0.08,,---,0.11,VWS V14.01,2013-05-24 06:16:00,
2013-05-24 02:21:00,57.6,57.0,29.65,WNW,288,0.0,1.0,98,0.07,,---,0.11,VWS V14.01,2013-05-24 06:21:00,
2013-05-24 02:26:00,57.5,56.9,29.65,WNW,288,0.0,0.0,98,0.07,,---,0.11,VWS V14.01,2013-05-24 06:26:00,
2013-05-24 02:35:00,57.4,56.8,29.65,WNW,288,0.0,0.0,98,0.08,,---,0.13,VWS V14.01,2013-05-24 06:35:00,
2013-05-24 02:40:00,57.3,56.7,29.65,WNW,288,1.0,1.0,98,0.07,,---,0.13,VWS V14.01,2013-05-24 06:40:00,
2013-05-24 02:46:00,57.2,56.6,29.65,WNW,288,0.0,1.0,98,0.07,,---,0.14,VWS V14.01,2013-05-24 06:46:00,
2013-05-24 02:51:00,57.1,56.5,29.64,East,96,1.0,1.0,98,0.07,,---,0.14,VWS V14.01,2013-05-24 06:51:00,
2013-05-24 02:57:00,57.1,56.5,29.65,East,96,0.0,2.0,98,0.07,,---,0.15,VWS V14.01,2013-05-24 06:57:00,
2013-05-24 03:01:00,57.0,56.4,29.65,WNW,284,1.0,1.0,98,0.06,,---,0.15,VWS V14.01,2013-05-24 07:01:00,
2013-05-24 03:06:00,57.0,56.4,29.65,WNW,288,1.0,2.0,98,0.07,,---,0.16,VWS V14.01,2013-05-24 07:06:00,
2013-05-24 03:11:00,57.0,56.4,29.65,WNW,302,1.0,2.0,98,0.06,,---,0.16,VWS V14.01,2013-05-24 07:11:00,
2013-05-24 03:16:00,57.0,56.4,29.64,WNW,302,0.0,1.0,98,0.05,,---,0.16,VWS V14.01,2013-05-24 07:16:00,
2013-05-24 03:22:00,57.0,56.4,29.64,WNW,302,0.0,0.0,98,0.05,,---,0.16,VWS V14.01,2013-05-24 07:22:00,
2013-05-24 03:28:00,56.9,56.3,29.63,WNW,302,0.0,1.0,98,0.05,,---,0.16,VWS V14.01,2013-05-24 07:28:00,
2013-05-24 03:32:00,56.7,56.1,29.63,WNW,302,0.0,0.0,98,0.04,,---,0.16,VWS V14.01,2013-05-24 07:32:00,
2013-05-24 03:37:00,56.7,56.1,29.63,WNW,302,0.0,0.0,98,0.03,,---,0.16,VWS V14.01,2013-05-24 07:37:00,
2013-05-24 03:42:00,56.6,56.0,29.63,WNW,302,0.0,0.0,98,0.03,,---,0.16,VWS V14.01,2013-05-24 07:42:00,
2013-05-24 03:47:00,56.5,55.9,29.63,WNW,302,1.0,1.0,98,0.02,,---,0.16,VWS V14.01,2013-05-24 07:47:00,
2013-05-24 03:52:00,56.3,55.8,29.64,WNW,291,2.0,2.0,98,0.02,,---,0.16,VWS V14.01,2013-05-24 07:52:00,
2013-05-24 03:57:00,56.3,55.8,29.64,WNW,285,2.0,3.0,98,0.01,,---,0.16,VWS V14.01,2013-05-24 07:57:00,
2013-05-24 04:02:00,56.4,55.8,29.64,NW,304,2.0,3.0,98,0.01,,---,0.16,VWS V14.01,2013-05-24 08:02:00,
2013-05-24 04:07:00,56.4,55.8,29.63,NW,312,2.0,3.0,98,0.00,,---,0.16,VWS V14.01,2013-05-24 08:07:00,
2013-05-24 04:12:00,56.3,55.8,29.63,West,281,2.0,3.0,98,0.00,,---,0.16,VWS V14.01,2013-05-24 08:12:00,
2013-05-24 04:18:00,56.2,55.7,29.63,WNW,284,3.0,3.0,98,0.00,,---,0.16,VWS V14.01,2013-05-24 08:18:00,
2013-05-24 04:23:00,56.2,55.7,29.64,WNW,288,3.0,5.0,98,0.00,,---,0.16,VWS V14.01,2013-05-24 08:23:00,
2013-05-24 04:27:00,56.4,55.8,29.63,WNW,293,4.0,6.0,98,0.00,,---,0.16,VWS V14.01,2013-05-24 08:27:00,
2013-05-24 04:32:00,56.5,55.9,29.63,West,280,2.0,4.0,98,0.00,,---,0.16,VWS V14.01,2013-05-24 08:32:00,
2013-05-24 04:37:00,56.3,55.8,29.63,WNW,285,1.0,3.0,98,0.00,,---,0.16,VWS V14.01,2013-05-24 08:37:00,
2013-05-24 04:42:00,56.3,55.8,29.63,West,281,1.0,3.0,98,0.00,,---,0.16,VWS V14.01,2013-05-24 08:42:00,
2013-05-24 04:48:00,56.1,55.5,29.64,West,270,1.0,3.0,98,0.00,,---,0.16,VWS V14.01,2013-05-24 08:48:00,
2013-05-24 04:52:00,56.2,55.7,29.64,WNW,291,3.0,4.0,98,0.00,,---,0.16,VWS V14.01,2013-05-24 08:52:00,
2013-05-24 04:57:00,56.1,55.5,29.64,West,274,3.0,5.0,98,0.00,,---,0.16,VWS V14.01,2013-05-24 08:57:00,
2013-05-24 05:02:00,56.1,55.5,29.64,West,280,2.0,5.0,98,0.00,,---,0.16,VWS V14.01,2013-05-24 09:02:00,
2013-05-24 05:07:00,56.2,55.7,29.65,WNW,291,3.0,5.0,98,0.00,,---,0.16,VWS V14.01,2013-05-24 09:07:00,
2013-05-24 05:13:00,56.3,55.8,29.65,WNW,290,3.0,7.0,98,0.00,,---,0.16,VWS V14.01,2013-05-24 09:13:00,
2013-05-24 05:17:00,56.5,55.9,29.65,WNW,284,5.0,7.0,98,0.00,,---,0.16,VWS V14.01,2013-05-24 09:17:00,
2013-05-24 05:22:00,56.6,56.0,29.65,WNW,284,3.0,7.0,98,0.00,,---,0.16,VWS V14.01,2013-05-24 09:22:00,
2013-05-24 05:27:00,56.6,56.0,29.66,WNW,288,8.0,8.0,98,0.00,,---,0.16,VWS V14.01,2013-05-24 09:27:00,
2013-05-24 05:32:00,55.2,54.1,29.66,West,264,12.0,18.0,96,0.00,,---,0.16,VWS V14.01,2013-05-24 09:32:00,
2013-05-24 05:37:00,53.6,52.5,29.66,WNW,297,12.0,16.0,96,0.00,,---,0.16,VWS V14.01,2013-05-24 09:37:00,
2013-05-24 05:42:00,52.4,51.3,29.66,WNW,292,18.0,21.0,96,0.00,,---,0.16,VWS V14.01,2013-05-24 09:42:00,
2013-05-24 05:47:00,51.5,50.7,29.67,NNW,336,10.0,18.0,97,0.00,,---,0.16,VWS V14.01,2013-05-24 09:47:00,
2013-05-24 05:52:00,50.9,50.1,29.67,WNW,295,7.0,16.0,97,0.00,,---,0.16,VWS V14.01,2013-05-24 09:52:00,
2013-05-24 05:58:00,50.4,49.6,29.67,WNW,298,9.0,15.0,97,0.00,,---,0.16,VWS V14.01,2013-05-24 09:58:00,
2013-05-24 06:02:00,49.9,49.1,29.67,NNW,332,10.0,13.0,97,0.00,,---,0.16,VWS V14.01,2013-05-24 10:02:00,
2013-05-24 06:07:00,49.6,49.1,29.67,NNW,330,10.0,17.0,98,0.00,,---,0.16,VWS V14.01,2013-05-24 10:07:00,
2013-05-24 06:12:00,49.3,48.8,29.68,WNW,290,9.0,17.0,98,0.00,,---,0.16,VWS V14.01,2013-05-24 10:12:00,
2013-05-24 06:17:00,48.9,48.4,29.68,NW,305,11.0,18.0,98,0.00,,---,0.16,VWS V14.01,2013-05-24 10:17:00,
2013-05-24 06:22:00,48.4,47.6,29.68,WNW,295,8.0,18.0,97,0.00,,---,0.16,VWS V14.01,2013-05-24 10:22:00,
2013-05-24 06:27:00,47.9,47.4,29.68,NW,318,9.0,18.0,98,0.00,,---,0.16,VWS V14.01,2013-05-24 10:27:00,
2013-05-24 06:32:00,47.5,47.0,29.69,WNW,288,12.0,20.0,98,0.00,,---,0.16,VWS V14.01,2013-05-24 10:32:00,
2013-05-24 06:37:00,47.1,46.6,29.69,WNW,300,8.0,14.0,98,0.00,,---,0.16,VWS V14.01,2013-05-24 10:37:00,
2013-05-24 06:43:00,46.9,46.4,29.69,WNW,284,8.0,15.0,98,0.00,,---,0.16,VWS V14.01,2013-05-24 10:43:00,
2013-05-24 06:48:00,46.7,46.2,29.69,West,281,13.0,19.0,98,0.00,,---,0.16,VWS V14.01,2013-05-24 10:48:00,
2013-05-24 06:54:00,46.5,46.0,29.70,WNW,297,10.0,20.0,98,0.00,,---,0.16,VWS V14.01,2013-05-24 10:54:00,
2013-05-24 06:58:00,46.3,45.8,29.70,WNW,291,6.0,22.0,98,0.00,,---,0.16,VWS V14.01,2013-05-24 10:58:00,
2013-05-24 07:03:00,46.2,45.7,29.70,NW,322,14.0,16.0,98,0.00,,---,0.16,VWS V14.01,2013-05-24 11:03:00,
2013-05-24 07:08:00,46.0,45.5,29.71,WNW,290,12.0,21.0,98,0.00,,---,0.16,VWS V14.01,2013-05-24 11:08:00,
2013-05-24 07:13:00,46.0,45.5,29.71,WNW,291,8.0,18.0,98,0.00,,---,0.16,VWS V14.01,2013-05-24 11:13:00,
2013-05-24 07:18:00,45.7,45.2,29.71,WNW,300,7.0,19.0,98,0.00,,---,0.16,VWS V14.01,2013-05-24 11:18:00,
2013-05-24 07:23:00,45.3,44.8,29.71,WNW,285,16.0,22.0,98,0.00,,---,0.16,VWS V14.01,2013-05-24 11:23:00,
2013-05-24 07:28:00,45.1,44.6,29.71,NW,308,16.0,21.0,98,0.01,,---,0.17,VWS V14.01,2013-05-24 11:28:00,
2013-05-24 07:33:00,44.8,44.0,29.70,NW,308,8.0,22.0,97,0.01,,---,0.17,VWS V14.01,2013-05-24 11:33:00,
2013-05-24 07:38:00,44.7,43.9,29.71,WNW,284,9.0,20.0,97,0.01,,---,0.17,VWS V14.01,2013-05-24 11:38:00,
2013-05-24 07:43:00,44.5,43.7,29.71,WNW,298,19.0,23.0,97,0.01,,---,0.17,VWS V14.01,2013-05-24 11:43:00,
2013-05-24 07:48:00,44.4,43.6,29.72,WNW,302,16.0,19.0,97,0.01,,---,0.17,VWS V14.01,2013-05-24 11:48:00,
2013-05-24 07:54:00,44.4,43.6,29.73,WNW,297,10.0,20.0,97,0.01,,---,0.17,VWS V14.01,2013-05-24 11:54:00,
2013-05-24 07:59:00,44.3,43.5,29.73,WNW,291,27.0,27.0,97,0.01,,---,0.17,VWS V14.01,2013-05-24 11:59:00,
2013-05-24 08:04:00,44.2,43.4,29.72,WNW,285,16.0,22.0,97,0.02,,---,0.18,VWS V14.01,2013-05-24 12:04:00,
2013-05-24 08:10:00,44.0,42.9,29.73,NW,321,17.0,26.0,96,0.02,,---,0.18,VWS V14.01,2013-05-24 12:10:00,
2013-05-24 08:14:00,43.8,42.7,29.73,West,280,12.0,27.0,96,0.02,,---,0.18,VWS V14.01,2013-05-24 12:14:00,
2013-05-24 08:19:00,43.7,42.6,29.73,NW,305,16.0,22.0,96,0.02,,---,0.18,VWS V14.01,2013-05-24 12:19:00,
2013-05-24 08:24:00,43.7,42.6,29.73,WNW,295,19.0,25.0,96,0.02,,---,0.18,VWS V14.01,2013-05-24 12:24:00,
2013-05-24 08:30:00,43.7,42.6,29.73,NW,318,14.0,27.0,96,0.01,,---,0.18,VWS V14.01,2013-05-24 12:30:00,
2013-05-24 08:35:00,43.9,42.8,29.74,WNW,284,13.0,21.0,96,0.01,,---,0.18,VWS V14.01,2013-05-24 12:35:00,
2013-05-24 08:40:00,44.1,43.0,29.74,WNW,284,12.0,26.0,96,0.01,,---,0.18,VWS V14.01,2013-05-24 12:40:00,
2013-05-24 08:46:00,44.2,43.1,29.74,NW,311,16.0,27.0,96,0.01,,---,0.18,VWS V14.01,2013-05-24 12:46:00,
2013-05-24 08:52:00,44.1,43.0,29.74,NW,319,18.0,26.0,96,0.01,,---,0.18,VWS V14.01,2013-05-24 12:52:00,
2013-05-24 08:56:00,44.1,43.0,29.74,NW,305,13.0,21.0,96,0.01,,---,0.18,VWS V14.01,2013-05-24 12:56:00,
2013-05-24 09:01:00,44.1,43.0,29.74,WNW,302,14.0,19.0,96,0.00,,---,0.18,VWS V14.01,2013-05-24 13:01:00,
2013-05-24 09:06:00,44.2,43.1,29.74,NW,307,15.0,21.0,96,0.00,,---,0.18,VWS V14.01,2013-05-24 13:06:00,
2013-05-24 09:11:00,43.9,42.6,29.75,WNW,295,11.0,23.0,95,0.00,,---,0.18,VWS V14.01,2013-05-24 13:11:00,
2013-05-24 09:16:00,43.8,42.7,29.75,WNW,285,9.0,23.0,96,0.00,,---,0.18,VWS V14.01,2013-05-24 13:16:00,
2013-05-24 09:22:00,43.7,42.4,29.76,NW,308,15.0,24.0,95,0.00,,---,0.18,VWS V14.01,2013-05-24 13:22:00,
2013-05-24 09:28:00,43.5,42.2,29.76,NW,309,11.0,22.0,95,0.00,,---,0.18,VWS V14.01,2013-05-24 13:28:00,
2013-05-24 09:32:00,43.5,42.4,29.77,NW,310,15.0,27.0,96,0.00,,---,0.18,VWS V14.01,2013-05-24 13:32:00,
2013-05-24 09:37:00,43.5,42.7,29.77,WNW,300,16.0,20.0,97,0.00,,---,0.18,VWS V14.01,2013-05-24 13:37:00,
2013-05-24 09:43:00,43.5,42.4,29.77,West,281,11.0,23.0,96,0.00,,---,0.18,VWS V14.01,2013-05-24 13:43:00,
2013-05-24 09:48:00,43.6,42.5,29.77,WNW,293,9.0,24.0,96,0.00,,---,0.18,VWS V14.01,2013-05-24 13:48:00,
2013-05-24 09:54:00,43.7,42.4,29.78,WNW,292,13.0,24.0,95,0.00,,---,0.18,VWS V14.01,2013-05-24 13:54:00,
2013-05-24 10:00:00,43.7,42.6,29.77,West,273,15.0,23.0,96,0.00,,---,0.18,VWS V14.01,2013-05-24 14:00:00,
2013-05-24 10:05:00,43.5,42.2,29.78,WNW,298,13.0,28.0,95,0.00,,---,0.18,VWS V14.01,2013-05-24 14:05:00,
2013-05-24 10:11:00,43.3,41.7,29.78,WNW,286,13.0,24.0,94,0.00,,---,0.18,VWS V14.01,2013-05-24 14:11:00,
2013-05-24 10:16:00,43.2,41.9,29.78,WNW,298,12.0,24.0,95,0.00,,---,0.18,VWS V14.01,2013-05-24 14:16:00,
2013-05-24 10:21:00,42.9,41.6,29.78,WNW,298,13.0,23.0,95,0.00,,---,0.18,VWS V14.01,2013-05-24 14:21:00,
2013-05-24 10:26:00,42.7,41.6,29.79,WNW,292,8.0,21.0,96,0.00,,---,0.18,VWS V14.01,2013-05-24 14:26:00,
2013-05-24 10:32:00,42.6,41.5,29.80,WNW,288,12.0,21.0,96,0.00,,---,0.18,VWS V14.01,2013-05-24 14:32:00,
2013-05-24 10:37:00,42.5,41.4,29.80,WNW,291,17.0,17.0,96,0.00,,---,0.18,VWS V14.01,2013-05-24 14:37:00,
2013-05-24 10:42:00,42.5,41.4,29.80,NW,309,10.0,16.0,96,0.00,,---,0.18,VWS V14.01,2013-05-24 14:42:00,
2013-05-24 10:48:00,42.3,41.2,29.81,WNW,298,18.0,22.0,96,0.00,,---,0.18,VWS V14.01,2013-05-24 14:48:00,
2013-05-24 10:53:00,42.1,41.0,29.81,WNW,290,15.0,20.0,96,0.00,,---,0.18,VWS V14.01,2013-05-24 14:53:00,
2013-05-24 10:58:00,42.1,41.0,29.82,WNW,292,13.0,15.0,96,0.00,,---,0.18,VWS V14.01,2013-05-24 14:58:00,
2013-05-24 11:03:00,41.7,40.4,29.81,WNW,292,10.0,22.0,95,0.00,,---,0.18,VWS V14.01,2013-05-24 15:03:00,
2013-05-24 11:09:00,41.4,40.3,29.82,WNW,292,8.0,18.0,96,0.00,,---,0.18,VWS V14.01,2013-05-24 15:09:00,
2013-05-24 11:15:00,41.2,40.2,29.82,WNW,300,11.0,19.0,96,0.01,,---,0.19,VWS V14.01,2013-05-24 15:15:00,
2013-05-24 11:20:00,41.1,40.3,29.82,WNW,291,8.0,22.0,97,0.01,,---,0.19,VWS V14.01,2013-05-24 15:20:00,
2013-05-24 11:26:00,41.0,40.2,29.83,WNW,296,14.0,20.0,97,0.01,,---,0.19,VWS V14.01,2013-05-24 15:26:00,
2013-05-24 11:31:00,41.0,40.2,29.82,NW,309,12.0,23.0,97,0.01,,---,0.19,VWS V14.01,2013-05-24 15:31:00,
2013-05-24 11:37:00,41.1,40.3,29.83,WNW,290,9.0,19.0,97,0.01,,---,0.19,VWS V14.01,2013-05-24 15:37:00,
2013-05-24 11:42:00,41.1,40.3,29.82,West,277,20.0,21.0,97,0.01,,---,0.19,VWS V14.01,2013-05-24 15:42:00,
2013-05-24 11:48:00,41.1,40.3,29.82,NNW,329,22.0,22.0,97,0.01,,---,0.19,VWS V14.01,2013-05-24 15:48:00,
2013-05-24 11:53:00,41.2,40.4,29.82,WNW,301,9.0,21.0,97,0.01,,---,0.19,VWS V14.01,2013-05-24 15:53:00,
2013-05-24 11:58:00,41.3,40.5,29.82,West,278,16.0,17.0,97,0.01,,---,0.19,VWS V14.01,2013-05-24 15:58:00,
2013-05-24 12:03:00,41.3,40.5,29.83,WNW,284,17.0,20.0,97,0.01,,---,0.19,VWS V14.01,2013-05-24 16:03:00,
2013-05-24 12:09:00,41.2,40.4,29.83,WNW,291,15.0,23.0,97,0.01,,---,0.19,VWS V14.01,2013-05-24 16:09:00,
2013-05-24 12:15:00,41.2,40.4,29.83,WNW,296,11.0,21.0,97,0.01,,---,0.19,VWS V14.01,2013-05-24 16:15:00,
2013-05-24 12:20:00,41.1,40.3,29.83,WNW,297,20.0,23.0,97,0.01,,---,0.20,VWS V14.01,2013-05-24 16:20:00,
2013-05-24 12:25:00,41.1,40.3,29.83,NW,319,13.0,18.0,97,0.02,,---,0.21,VWS V14.01,2013-05-24 16:25:00,
2013-05-24 12:31:00,41.1,40.6,29.82,NW,319,15.0,20.0,98,0.02,,---,0.21,VWS V14.01,2013-05-24 16:31:00,
2013-05-24 12:36:00,41.1,40.3,29.83,NW,314,10.0,18.0,97,0.02,,---,0.21,VWS V14.01,2013-05-24 16:36:00,
2013-05-24 12:41:00,41.1,40.3,29.83,NNW,339,6.0,25.0,97,0.03,,---,0.22,VWS V14.01,2013-05-24 16:41:00,
2013-05-24 12:47:00,41.2,40.4,29.83,WNW,298,10.0,21.0,97,0.03,,---,0.22,VWS V14.01,2013-05-24 16:47:00,
2013-05-24 12:53:00,41.0,40.2,29.84,WNW,288,8.0,23.0,97,0.03,,---,0.22,VWS V14.01,2013-05-24 16:53:00,
2013-05-24 12:58:00,41.0,40.2,29.84,WNW,290,12.0,17.0,97,0.03,,---,0.22,VWS V14.01,2013-05-24 16:58:00,
2013-05-24 13:03:00,40.9,40.1,29.84,NNE,32,14.0,20.0,97,0.03,,---,0.22,VWS V14.01,2013-05-24 17:03:00,
2013-05-24 13:09:00,41.0,40.2,29.84,WNW,294,15.0,20.0,97,0.04,,---,0.23,VWS V14.01,2013-05-24 17:09:00,
2013-05-24 13:15:00,41.1,40.6,29.84,NW,314,16.0,23.0,98,0.04,,---,0.23,VWS V14.01,2013-05-24 17:15:00,
2013-05-24 13:20:00,41.2,40.7,29.84,NW,310,9.0,22.0,98,0.03,,---,0.23,VWS V14.01,2013-05-24 17:20:00,
2013-05-24 13:25:00,41.3,40.8,29.84,WNW,284,18.0,18.0,98,0.02,,---,0.23,VWS V14.01,2013-05-24 17:25:00,
2013-05-24 13:32:00,41.3,40.8,29.84,WNW,302,10.0,18.0,98,0.02,,---,0.23,VWS V14.01,2013-05-24 17:32:00,
2013-05-24 13:38:00,41.3,40.5,29.84,WNW,302,8.0,19.0,97,0.01,,---,0.23,VWS V14.01,2013-05-24 17:38:00,
2013-05-24 13:43:00,41.1,40.3,29.84,NW,308,16.0,23.0,97,0.01,,---,0.23,VWS V14.01,2013-05-24 17:43:00,
2013-05-24 13:49:00,41.1,40.6,29.84,WNW,300,11.0,18.0,98,0.01,,---,0.23,VWS V14.01,2013-05-24 17:49:00,
2013-05-24 13:54:00,41.1,40.6,29.84,NW,305,9.0,22.0,98,0.01,,---,0.23,VWS V14.01,2013-05-24 17:54:00,
2013-05-24 13:59:00,40.8,40.0,29.84,WNW,298,17.0,24.0,97,0.01,,---,0.23,VWS V14.01,2013-05-24 17:59:00,
2013-05-24 14:04:00,40.7,40.2,29.85,WNW,295,18.0,22.0,98,0.01,,---,0.23,VWS V14.01,2013-05-24 18:04:00,
2013-05-24 14:09:00,40.7,40.2,29.85,WNW,287,11.0,26.0,98,0.00,,---,0.23,VWS V14.01,2013-05-24 18:09:00,
2013-05-24 14:15:00,40.7,40.2,29.85,NW,305,13.0,20.0,98,0.01,,---,0.24,VWS V14.01,2013-05-24 18:15:00,
2013-05-24 14:20:00,40.8,40.3,29.86,WNW,302,9.0,22.0,98,0.01,,---,0.24,VWS V14.01,2013-05-24 18:20:00,
2013-05-24 14:26:00,40.6,40.1,29.86,WNW,287,15.0,22.0,98,0.01,,---,0.24,VWS V14.01,2013-05-24 18:26:00,
2013-05-24 14:31:00,40.5,40.0,29.86,WNW,293,18.0,25.0,98,0.01,,---,0.24,VWS V14.01,2013-05-24 18:31:00,
2013-05-24 14:36:00,40.4,39.9,29.86,WNW,288,12.0,18.0,98,0.02,,---,0.25,VWS V14.01,2013-05-24 18:36:00,
2013-05-24 14:41:00,40.3,39.8,29.86,NNW,330,13.0,22.0,98,0.02,,---,0.25,VWS V14.01,2013-05-24 18:41:00,
2013-05-24 14:46:00,40.3,39.8,29.87,WNW,290,13.0,18.0,98,0.02,,---,0.25,VWS V14.01,2013-05-24 18:46:00,
2013-05-24 14:51:00,40.2,39.7,29.86,WNW,292,13.0,23.0,98,0.02,,---,0.25,VWS V14.01,2013-05-24 18:51:00,
2013-05-24 14:56:00,40.1,39.6,29.86,NW,319,12.0,17.0,98,0.03,,---,0.26,VWS V14.01,2013-05-24 18:56:00,
2013-05-24 15:01:00,39.9,39.4,29.87,WNW,295,8.0,20.0,98,0.03,,---,0.26,VWS V14.01,2013-05-24 19:01:00,
2013-05-24 15:06:00,39.9,39.4,29.87,WNW,296,14.0,25.0,98,0.04,,---,0.27,VWS V14.01,2013-05-24 19:06:00,
2013-05-24 15:12:00,39.9,39.4,29.87,NNW,342,6.0,17.0,98,0.04,,---,0.27,VWS V14.01,2013-05-24 19:12:00,
2013-05-24 15:17:00,40.0,39.5,29.87,NW,304,12.0,18.0,98,0.03,,---,0.27,VWS V14.01,2013-05-24 19:17:00,
2013-05-24 15:22:00,40.2,39.7,29.87,NW,305,10.0,14.0,98,0.03,,---,0.27,VWS V14.01,2013-05-24 19:22:00,
2013-05-24 15:27:00,40.0,39.5,29.87,NW,305,13.0,23.0,98,0.03,,---,0.27,VWS V14.01,2013-05-24 19:27:00,
2013-05-24 15:32:00,39.9,39.4,29.88,WNW,294,8.0,25.0,98,0.03,,---,0.27,VWS V14.01,2013-05-24 19:32:00,
2013-05-24 15:37:00,39.8,39.3,29.88,WNW,300,21.0,23.0,98,0.02,,---,0.27,VWS V14.01,2013-05-24 19:37:00,
2013-05-24 15:42:00,39.8,39.3,29.88,WNW,301,6.0,19.0,98,0.02,,---,0.27,VWS V14.01,2013-05-24 19:42:00,
2013-05-24 15:48:00,39.6,39.1,29.88,WNW,295,11.0,19.0,98,0.02,,---,0.27,VWS V14.01,2013-05-24 19:48:00,
2013-05-24 15:53:00,39.7,39.2,29.88,NW,314,7.0,18.0,98,0.02,,---,0.27,VWS V14.01,2013-05-24 19:53:00,
2013-05-24 15:58:00,39.5,39.0,29.88,WNW,301,12.0,18.0,98,0.02,,---,0.28,VWS V14.01,2013-05-24 19:58:00,
2013-05-24 16:04:00,39.4,38.9,29.88,NW,308,15.0,26.0,98,0.02,,---,0.28,VWS V14.01,2013-05-24 20:04:00,
2013-05-24 16:10:00,39.2,38.7,29.88,WNW,288,21.0,22.0,98,0.01,,---,0.28,VWS V14.01,2013-05-24 20:10:00,
2013-05-24 16:15:00,39.1,38.6,29.88,NW,305,7.0,22.0,98,0.01,,---,0.28,VWS V14.01,2013-05-24 20:15:00,
2013-05-24 16:20:00,39.1,38.6,29.88,NW,304,7.0,25.0,98,0.01,,---,0.28,VWS V14.01,2013-05-24 20:20:00,
2013-05-24 16:26:00,39.1,38.6,29.88,NW,319,11.0,23.0,98,0.01,,---,0.28,VWS V14.01,2013-05-24 20:26:00,
2013-05-24 16:31:00,39.1,38.6,29.88,WNW,289,16.0,20.0,98,0.01,,---,0.28,VWS V14.01,2013-05-24 20:31:00,
2013-05-24 16:36:00,39.1,38.6,29.88,West,280,6.0,18.0,98,0.01,,---,0.28,VWS V14.01,2013-05-24 20:36:00,
2013-05-24 16:41:00,39.1,38.6,29.89,NW,318,9.0,17.0,98,0.01,,---,0.28,VWS V14.01,2013-05-24 20:41:00,
2013-05-24 16:46:00,39.1,38.6,29.89,WNW,291,6.0,18.0,98,0.01,,---,0.28,VWS V14.01,2013-05-24 20:46:00,
2013-05-24 16:51:00,39.0,38.5,29.89,NNW,342,11.0,22.0,98,0.01,,---,0.28,VWS V14.01,2013-05-24 20:51:00,
2013-05-24 16:56:00,38.9,38.4,29.89,WNW,295,11.0,19.0,98,0.02,,---,0.29,VWS V14.01,2013-05-24 20:56:00,
2013-05-24 17:01:00,38.9,38.4,29.90,NW,312,9.0,20.0,98,0.01,,---,0.29,VWS V14.01,2013-05-24 21:01:00,
2013-05-24 17:06:00,38.8,38.3,29.90,WNW,300,7.0,22.0,98,0.02,,---,0.30,VWS V14.01,2013-05-24 21:06:00,
2013-05-24 17:11:00,38.7,38.2,29.91,NW,305,11.0,18.0,98,0.02,,---,0.30,VWS V14.01,2013-05-24 21:11:00,
2013-05-24 17:16:00,38.7,38.2,29.90,WNW,301,9.0,21.0,98,0.02,,---,0.30,VWS V14.01,2013-05-24 21:16:00,
2013-05-24 17:21:00,38.6,38.1,29.90,NW,319,7.0,17.0,98,0.03,,---,0.31,VWS V14.01,2013-05-24 21:21:00,
2013-05-24 17:27:00,38.4,37.9,29.90,NW,305,13.0,24.0,98,0.03,,---,0.31,VWS V14.01,2013-05-24 21:27:00,
2013-05-24 17:32:00,38.3,37.8,29.90,NW,308,19.0,27.0,98,0.03,,---,0.31,VWS V14.01,2013-05-24 21:32:00,
2013-05-24 17:38:00,38.2,37.7,29.90,WNW,298,12.0,21.0,98,0.04,,---,0.32,VWS V14.01,2013-05-24 21:38:00,
2013-05-24 17:44:00,38.1,37.6,29.90,NW,324,15.0,24.0,98,0.04,,---,0.32,VWS V14.01,2013-05-24 21:44:00,
2013-05-24 17:49:00,38.1,37.6,29.90,West,274,9.0,16.0,98,0.04,,---,0.32,VWS V14.01,2013-05-24 21:49:00,
2013-05-24 17:54:00,38.1,37.6,29.90,WNW,302,8.0,19.0,98,0.04,,---,0.32,VWS V14.01,2013-05-24 21:54:00,
2013-05-24 17:59:00,38.0,37.5,29.90,NW,310,10.0,18.0,98,0.04,,---,0.33,VWS V14.01,2013-05-24 21:59:00,
2013-05-24 18:04:00,37.9,37.4,29.90,NW,309,9.0,19.0,98,0.04,,---,0.33,VWS V14.01,2013-05-24 22:04:00,
2013-05-24 18:09:00,37.9,37.4,29.90,WNW,300,11.0,20.0,98,0.04,,---,0.34,VWS V14.01,2013-05-24 22:09:00,
2013-05-24 18:14:00,38.0,37.5,29.90,NW,308,10.0,17.0,98,0.04,,---,0.34,VWS V14.01,2013-05-24 22:14:00,
2013-05-24 18:19:00,38.0,37.5,29.91,WNW,290,11.0,21.0,98,0.05,,---,0.35,VWS V14.01,2013-05-24 22:19:00,
2013-05-24 18:24:00,38.0,37.7,29.91,NW,308,12.0,18.0,99,0.05,,---,0.36,VWS V14.01,2013-05-24 22:24:00,
2013-05-24 18:29:00,37.9,37.6,29.91,WNW,291,8.0,17.0,99,0.05,,---,0.36,VWS V14.01,2013-05-24 22:29:00,
2013-05-24 18:34:00,37.9,37.6,29.92,WNW,291,11.0,16.0,99,0.05,,---,0.36,VWS V14.01,2013-05-24 22:34:00,
2013-05-24 18:39:00,37.9,37.6,29.92,NNW,330,8.0,18.0,99,0.05,,---,0.37,VWS V14.01,2013-05-24 22:39:00,
2013-05-24 18:44:00,37.9,37.6,29.92,NNW,338,14.0,17.0,99,0.05,,---,0.37,VWS V14.01,2013-05-24 22:44:00,
2013-05-24 18:49:00,37.9,37.6,29.92,NW,305,11.0,18.0,99,0.05,,---,0.37,VWS V14.01,2013-05-24 22:49:00,
2013-05-24 18:54:00,37.9,37.6,29.92,WNW,288,7.0,15.0,99,0.05,,---,0.37,VWS V14.01,2013-05-24 22:54:00,
2013-05-24 18:59:00,37.8,37.5,29.92,NW,308,7.0,18.0,99,0.06,,---,0.38,VWS V14.01,2013-05-24 22:59:00,
2013-05-24 19:04:00,37.8,37.5,29.92,WNW,294,5.0,14.0,99,0.05,,---,0.38,VWS V14.01,2013-05-24 23:04:00,
2013-05-24 19:09:00,37.7,37.5,29.92,WNW,300,8.0,16.0,99,0.06,,---,0.40,VWS V14.01,2013-05-24 23:09:00,
2013-05-24 19:14:00,37.7,37.5,29.93,WNW,297,8.0,17.0,99,0.07,,---,0.41,VWS V14.01,2013-05-24 23:14:00,
2013-05-24 19:19:00,37.6,37.3,29.93,NW,314,5.0,21.0,99,0.08,,---,0.43,VWS V14.01,2013-05-24 23:19:00,
2013-05-24 19:24:00,37.6,37.3,29.94,WNW,300,11.0,18.0,99,0.08,,---,0.44,VWS V14.01,2013-05-24 23:24:00,
2013-05-24 19:29:00,37.7,37.5,29.94,NW,310,9.0,19.0,99,0.09,,---,0.45,VWS V14.01,2013-05-24 23:29:00,
2013-05-24 19:35:00,37.7,37.5,29.94,NW,304,7.0,15.0,99,0.09,,---,0.45,VWS V14.01,2013-05-24 23:35:00,
2013-05-24 19:40:00,37.7,37.5,29.94,NW,314,8.0,13.0,99,0.09,,---,0.46,VWS V14.01,2013-05-24 23:40:00,
2013-05-24 19:45:00,37.7,37.5,29.95,NW,323,5.0,13.0,99,0.09,,---,0.46,VWS V14.01,2013-05-24 23:45:00,
2013-05-24 19:50:00,37.7,37.5,29.95,WNW,298,6.0,15.0,99,0.10,,---,0.47,VWS V14.01,2013-05-24 23:50:00,
2013-05-24 19:55:00,37.7,37.5,29.95,NW,312,8.0,19.0,99,0.11,,---,0.48,VWS V14.01,2013-05-24 23:55:00,
2013-05-24 20:00:00,37.7,37.5,29.96,WNW,298,3.0,11.0,99,0.10,,---,0.48,VWS V14.01,2013-05-25 00:00:00,
2013-05-24 20:05:00,37.6,37.3,29.97,WNW,291,5.0,11.0,99,0.11,,---,0.49,VWS V14.01,2013-05-25 00:05:00,
2013-05-24 20:10:00,37.6,37.3,29.97,NW,319,6.0,14.0,99,0.10,,---,0.50,VWS V14.01,2013-05-25 00:10:00,
2013-05-24 20:15:00,37.6,37.3,29.97,NW,323,11.0,14.0,99,0.09,,---,0.50,VWS V14.01,2013-05-25 00:15:00,
2013-05-24 20:20:00,37.5,37.2,29.98,WNW,294,6.0,17.0,99,0.08,,---,0.51,VWS V14.01,2013-05-25 00:20:00,
2013-05-24 20:25:00,37.5,37.2,29.98,NW,314,8.0,14.0,99,0.08,,---,0.52,VWS V14.01,2013-05-25 00:25:00,
2013-05-24 20:30:00,37.4,37.2,29.98,NNW,328,7.0,15.0,99,0.07,,---,0.52,VWS V14.01,2013-05-25 00:30:00,
2013-05-24 20:35:00,37.3,37.0,29.98,WNW,294,14.0,18.0,99,0.08,,---,0.53,VWS V14.01,2013-05-25 00:35:00,
2013-05-24 20:40:00,37.3,37.0,29.97,WNW,291,11.0,18.0,99,0.07,,---,0.53,VWS V14.01,2013-05-25 00:40:00,
2013-05-24 20:45:00,37.3,37.0,29.97,WNW,297,8.0,19.0,99,0.08,,---,0.54,VWS V14.01,2013-05-25 00:45:00,
2013-05-24 20:50:00,37.2,37.0,29.96,NW,322,12.0,14.0,99,0.07,,---,0.54,VWS V14.01,2013-05-25 00:50:00,
2013-05-24 20:55:00,37.2,37.0,29.97,WNW,287,9.0,23.0,99,0.07,,---,0.55,VWS V14.01,2013-05-25 00:55:00,
2013-05-24 21:00:00,37.2,37.0,29.97,NW,309,7.0,16.0,99,0.07,,---,0.55,VWS V14.01,2013-05-25 01:00:00,
2013-05-24 21:05:00,37.2,37.0,29.97,WNW,302,8.0,14.0,99,0.06,,---,0.55,VWS V14.01,2013-05-25 01:05:00,
2013-05-24 21:10:00,37.1,36.8,29.97,NNE,25,11.0,19.0,99,0.07,,---,0.56,VWS V14.01,2013-05-25 01:10:00,
2013-05-24 21:15:00,37.1,36.8,29.98,WNW,294,9.0,15.0,99,0.06,,---,0.56,VWS V14.01,2013-05-25 01:15:00,
2013-05-24 21:20:00,37.1,36.8,29.98,WNW,297,8.0,16.0,99,0.06,,---,0.57,VWS V14.01,2013-05-25 01:20:00,
2013-05-24 21:25:00,37.0,36.8,29.98,NW,326,8.0,17.0,99,0.06,,---,0.58,VWS V14.01,2013-05-25 01:25:00,
2013-05-24 21:30:00,37.0,36.8,29.98,WNW,292,13.0,16.0,99,0.07,,---,0.59,VWS V14.01,2013-05-25 01:30:00,
2013-05-24 21:35:00,36.9,36.7,29.98,NW,309,8.0,19.0,99,0.06,,---,0.59,VWS V14.01,2013-05-25 01:35:00,
2013-05-24 21:40:00,36.9,36.7,29.98,NNW,333,8.0,15.0,99,0.07,,---,0.60,VWS V14.01,2013-05-25 01:40:00,
2013-05-24 21:45:00,36.8,36.5,29.98,West,267,6.0,20.0,99,0.06,,---,0.60,VWS V14.01,2013-05-25 01:45:00,
2013-05-24 21:50:00,36.8,36.5,29.98,NW,326,8.0,16.0,99,0.07,,---,0.61,VWS V14.01,2013-05-25 01:50:00,
2013-05-24 21:55:00,36.8,36.5,29.98,NW,308,6.0,15.0,99,0.07,,---,0.62,VWS V14.01,2013-05-25 01:55:00,
2013-05-24 22:00:00,36.8,36.5,29.98,NW,324,9.0,18.0,99,0.07,,---,0.62,VWS V14.01,2013-05-25 02:00:00,
2013-05-24 22:05:00,36.8,36.5,29.97,North,8,6.0,16.0,99,0.07,,---,0.62,VWS V14.01,2013-05-25 02:05:00,
2013-05-24 22:10:00,36.8,36.5,29.98,WNW,297,15.0,20.0,99,0.07,,---,0.63,VWS V14.01,2013-05-25 02:10:00,
2013-05-24 22:15:00,36.8,36.5,29.98,NW,304,11.0,17.0,99,0.07,,---,0.63,VWS V14.01,2013-05-25 02:15:00,
2013-05-24 22:20:00,36.8,36.5,29.98,NW,308,7.0,19.0,99,0.06,,---,0.63,VWS V14.01,2013-05-25 02:20:00,
2013-05-24 22:25:00,36.7,36.5,29.98,North,353,10.0,20.0,99,0.05,,---,0.63,VWS V14.01,2013-05-25 02:25:00,
2013-05-24 22:30:00,36.7,36.5,29.97,NW,317,13.0,19.0,99,0.04,,---,0.63,VWS V14.01,2013-05-25 02:30:00,
2013-05-24 22:35:00,36.8,36.5,29.98,NNW,338,5.0,16.0,99,0.05,,---,0.64,VWS V14.01,2013-05-25 02:35:00,
2013-05-24 22:40:00,36.8,36.5,29.98,North,11,12.0,17.0,99,0.05,,---,0.65,VWS V14.01,2013-05-25 02:40:00,
2013-05-24 22:45:00,36.8,36.5,29.98,WNW,300,11.0,19.0,99,0.05,,---,0.65,VWS V14.01,2013-05-25 02:45:00,
2013-05-24 22:50:00,36.8,36.5,29.98,WNW,298,9.0,17.0,99,0.04,,---,0.65,VWS V14.01,2013-05-25 02:50:00,
2013-05-24 22:55:00,36.8,36.5,29.98,WNW,297,9.0,22.0,99,0.05,,---,0.66,VWS V14.01,2013-05-25 02:55:00,
2013-05-24 23:00:00,36.8,36.5,29.98,NW,326,13.0,21.0,99,0.04,,---,0.66,VWS V14.01,2013-05-25 03:00:00,
2013-05-24 23:05:00,36.8,36.5,29.97,NW,324,21.0,21.0,99,0.04,,---,0.66,VWS V14.01,2013-05-25 03:05:00,
2013-05-24 23:10:00,36.8,36.5,29.97,NNW,329,10.0,24.0,99,0.04,,---,0.66,VWS V14.01,2013-05-25 03:10:00,
2013-05-24 23:15:00,36.8,36.5,29.97,NNW,328,11.0,19.0,99,0.04,,---,0.67,VWS V14.01,2013-05-25 03:15:00,
2013-05-24 23:20:00,36.8,36.5,29.96,NW,321,12.0,19.0,99,0.05,,---,0.68,VWS V14.01,2013-05-25 03:20:00,
2013-05-24 23:25:00,36.8,36.5,29.96,NNW,328,7.0,19.0,99,0.05,,---,0.68,VWS V14.01,2013-05-25 03:25:00,
2013-05-24 23:30:00,36.9,36.7,29.95,West,277,11.0,20.0,99,0.06,,---,0.69,VWS V14.01,2013-05-25 03:30:00,
2013-05-24 23:36:00,36.9,36.7,29.97,WNW,300,13.0,20.0,99,0.06,,---,0.70,VWS V14.01,2013-05-25 03:36:00,
2013-05-24 23:42:00,36.9,36.7,29.97,NW,305,4.0,18.0,99,0.06,,---,0.71,VWS V14.01,2013-05-25 03:42:00,
2013-05-24 23:47:00,36.9,36.7,29.97,NNE,25,11.0,17.0,99,0.06,,---,0.71,VWS V14.01,2013-05-25 03:47:00,
2013-05-24 23:52:00,36.9,36.7,29.98,NW,323,12.0,21.0,99,0.06,,---,0.72,VWS V14.01,2013-05-25 03:52:00,
2013-05-24 23:57:00,37.0,36.8,29.99,WNW,290,9.0,19.0,99,0.07,,---,0.73,VWS V14.01,2013-05-25 03:57:00,